Time;durP1;ratioP1;P1;durP2;ratioP2;P2;SDS_P1;SDS_P2;PMS_P1;PMS_P2;Temp;Humidity;BMP_temperature;BMP_pressure;BME280_temperature;BME280_humidity;BME280_pressure;Samples;Min_cycle;Max_cycle;Signal;HPM_P1;HPM_P2
2024/01/17 00:01:14;;;;;;;6.27;5.03;;;;;;;19.09;42.08;96275.59;5050581;28;20702;-25
2024/01/17 00:03:41;;;;;;;6.60;5.33;;;;;;;19.08;42.03;96267.13;5049295;28;20733;-25
2024/01/17 00:06:07;;;;;;;6.70;5.77;;;;;;;19.08;42.21;96269.69;5050371;28;20698;-25
2024/01/17 00:08:34;;;;;;;6.80;5.60;;;;;;;19.07;42.13;96267.94;5051056;28;20213;-26
2024/01/17 00:11:01;;;;;;;6.60;5.20;;;;;;;19.08;41.81;96263.72;5050678;28;20266;-25
2024/01/17 00:13:27;;;;;;;5.87;5.00;;;;;;;19.07;42.50;96277.28;5049557;28;20709;-26
2024/01/17 00:15:54;;;;;;;8.13;5.07;;;;;;;19.07;42.51;96274.75;5051286;28;20289;-25
2024/01/17 00:18:20;;;;;;;6.50;5.37;;;;;;;19.06;41.96;96267.91;5053322;28;20200;-25
2024/01/17 00:20:47;;;;;;;5.30;4.80;;;;;;;19.05;42.32;96258.56;5048562;28;20225;-25
2024/01/17 00:23:14;;;;;;;7.83;5.50;;;;;;;19.05;42.30;96256.03;5054693;28;20207;-26
2024/01/17 00:25:40;;;;;;;6.47;5.10;;;;;;;19.05;42.34;96249.25;5054393;28;20246;-24
2024/01/17 00:28:07;;;;;;;7.73;5.23;;;;;;;19.06;42.38;96247.53;5054333;28;20668;-25
2024/01/17 00:30:33;;;;;;;6.50;5.43;;;;;;;19.07;42.62;96239.09;5054647;28;20217;-26
2024/01/17 00:33:00;;;;;;;6.97;5.10;;;;;;;19.07;42.35;96236.56;5054530;28;20197;-25
2024/01/17 00:35:27;;;;;;;5.53;4.97;;;;;;;19.07;42.18;96223.81;5053194;28;20209;-25
2024/01/17 00:37:54;;;;;;;5.93;4.67;;;;;;;19.06;41.98;96217.84;5050616;28;20681;-25
2024/01/17 00:40:20;;;;;;;5.80;5.07;;;;;;;19.03;42.16;96210.16;5053850;28;20595;-25
2024/01/17 00:42:47;;;;;;;8.33;5.47;;;;;;;19.07;42.35;96213.63;5052675;28;20201;-28
2024/01/17 00:45:14;;;;;;;5.47;4.93;;;;;;;19.06;42.09;96211.91;5055623;28;20634;-27
2024/01/17 00:47:40;;;;;;;6.23;5.20;;;;;;;19.06;42.44;96206.81;5055195;28;20320;-26
2024/01/17 00:50:07;;;;;;;6.13;5.10;;;;;;;19.05;42.26;96205.97;5055527;28;20707;-28
2024/01/17 00:52:34;;;;;;;6.23;5.30;;;;;;;19.04;42.55;96191.50;5054552;28;20235;-27
2024/01/17 00:55:01;;;;;;;7.70;5.20;;;;;;;19.05;42.01;96179.66;5053918;28;20193;-26
2024/01/17 00:57:28;;;;;;;8.60;5.30;;;;;;;19.04;41.94;96172.84;5055037;28;20201;-29
2024/01/17 00:59:54;;;;;;;6.23;4.53;;;;;;;19.04;42.31;96176.22;5055319;28;20254;-29
2024/01/17 01:02:21;;;;;;;6.13;4.97;;;;;;;19.05;42.22;96184.75;5054853;28;20750;-26
2024/01/17 01:04:48;;;;;;;6.23;4.70;;;;;;;19.03;42.14;96174.53;5055565;28;20205;-29
2024/01/17 01:07:15;;;;;;;5.43;4.53;;;;;;;19.04;42.42;96185.56;5055203;28;20197;-26
2024/01/17 01:09:41;;;;;;;5.63;4.80;;;;;;;19.05;42.09;96194.91;5055011;28;20309;-26
2024/01/17 01:12:08;;;;;;;5.70;4.70;;;;;;;19.03;42.14;96182.16;5050730;28;20203;-28
2024/01/17 01:14:35;;;;;;;5.97;4.90;;;;;;;19.03;42.35;96182.16;5053976;28;20204;-27
2024/01/17 01:17:02;;;;;;;7.70;5.00;;;;;;;19.03;42.06;96182.16;5053818;28;20203;-26
2024/01/17 01:19:28;;;;;;;6.90;5.07;;;;;;;19.03;42.14;96179.63;5054224;28;20220;-29
2024/01/17 01:21:55;;;;;;;6.57;4.73;;;;;;;19.04;42.08;96193.22;5054026;28;20213;-28
2024/01/17 01:24:22;;;;;;;5.83;5.20;;;;;;;19.05;42.15;96190.69;5054325;28;20205;-26
2024/01/17 01:26:48;;;;;;;6.20;4.97;;;;;;;19.05;42.37;96205.09;5050556;28;20508;-26
2024/01/17 01:29:15;;;;;;;6.87;5.17;;;;;;;19.07;42.14;96195.81;5048928;28;20296;-26
2024/01/17 01:31:42;;;;;;;6.00;4.57;;;;;;;19.06;42.16;96197.50;5048904;28;20725;-27
2024/01/17 01:34:09;;;;;;;5.93;5.13;;;;;;;19.06;42.01;96192.41;5050380;28;20549;-27
2024/01/17 01:36:36;;;;;;;6.30;4.50;;;;;;;19.07;41.86;96188.19;5055205;28;20504;-27
2024/01/17 01:39:02;;;;;;;5.77;5.07;;;;;;;19.05;42.24;96198.34;5054617;28;20228;-26
2024/01/17 01:41:29;;;;;;;5.73;5.00;;;;;;;19.05;42.45;96194.91;5054608;28;20228;-28
2024/01/17 01:43:56;;;;;;;7.00;4.93;;;;;;;19.06;41.98;96181.34;5054974;28;20722;-30
2024/01/17 01:46:31;;;;;;;5.23;4.73;;;;;;;19.03;42.24;96184.72;5053968;28;20232;-26
2024/01/17 01:48:58;;;;;;;6.13;4.63;;;;;;;19.04;41.92;96181.31;5036206;28;20286;-28
2024/01/17 01:51:25;;;;;;;5.93;4.77;;;;;;;19.03;42.26;96182.16;5053120;28;20250;-26
2024/01/17 01:53:53;;;;;;;5.23;4.50;;;;;;;19.04;42.29;96183.03;5052006;28;20258;-30
2024/01/17 01:56:21;;;;;;;6.00;4.80;;;;;;;19.02;42.16;96177.91;5045191;28;20197;-26
2024/01/17 01:58:48;;;;;;;5.43;4.70;;;;;;;19.04;42.07;96180.47;5032819;28;20244;-26
2024/01/17 02:01:15;;;;;;;5.13;4.50;;;;;;;19.06;42.27;96171.16;5041495;28;20221;-26
2024/01/17 02:03:43;;;;;;;5.93;4.77;;;;;;;19.04;42.03;96160.13;5052689;28;20201;-27
2024/01/17 02:06:11;;;;;;;6.00;4.53;;;;;;;19.04;42.16;96147.38;5049358;28;20674;-26
2024/01/17 02:08:38;;;;;;;5.03;4.37;;;;;;;19.06;42.31;96150.78;5050760;28;20275;-31
2024/01/17 02:11:05;;;;;;;5.00;4.50;;;;;;;19.06;41.80;96144.03;5035321;28;20678;-26
2024/01/17 02:13:35;;;;;;;6.50;4.93;;;;;;;19.08;41.98;96141.50;5061576;28;20212;-27
2024/01/17 02:16:01;;;;;;;5.57;4.93;;;;;;;19.06;41.96;96131.28;5053776;28;20598;-26
2024/01/17 02:18:28;;;;;;;5.53;4.60;;;;;;;19.07;42.12;96127.06;5053967;28;20201;-26
2024/01/17 02:20:54;;;;;;;5.43;4.57;;;;;;;19.06;42.00;96126.19;5052874;28;20217;-26
2024/01/17 02:23:25;;;;;;;5.93;4.63;;;;;;;19.07;41.88;96127.91;5052109;28;20205;-29
2024/01/17 02:25:53;;;;;;;6.67;4.87;;;;;;;19.08;42.16;96123.69;5053950;28;20571;-26
2024/01/17 02:28:19;;;;;;;5.00;4.50;;;;;;;19.09;42.04;96121.16;5053863;28;20621;-29
2024/01/17 02:30:46;;;;;;;5.63;4.40;;;;;;;19.09;41.96;96120.28;5048873;28;20225;-26
2024/01/17 02:33:13;;;;;;;5.53;4.73;;;;;;;19.09;42.03;96116.06;5053310;28;20643;-26
2024/01/17 02:35:40;;;;;;;4.50;4.10;;;;;;;19.12;42.04;96110.16;5053385;28;20196;-27
2024/01/17 02:38:06;;;;;;;6.00;4.53;;;;;;;19.13;41.99;96106.81;5052262;28;20260;-26
2024/01/17 02:40:33;;;;;;;5.40;4.67;;;;;;;19.14;41.85;96104.28;5052842;28;20228;-26
2024/01/17 02:43:00;;;;;;;5.47;4.67;;;;;;;19.16;41.58;96094.13;5053108;28;20201;-29
2024/01/17 02:45:26;;;;;;;4.77;4.20;;;;;;;19.17;42.31;96086.50;5052535;28;20228;-26
2024/01/17 02:47:53;;;;;;;5.73;4.50;;;;;;;19.18;41.79;96084.78;5050702;28;20197;-27
2024/01/17 02:50:20;;;;;;;4.83;4.37;;;;;;;19.20;41.84;96078.03;5049672;28;20734;-26
2024/01/17 02:52:47;;;;;;;5.00;4.47;;;;;;;19.22;41.60;96076.38;5053244;28;20283;-26
2024/01/17 02:55:16;;;;;;;4.90;4.40;;;;;;;19.21;41.90;96069.56;5052768;28;20635;-26
2024/01/17 02:57:43;;;;;;;4.80;4.30;;;;;;;19.24;41.67;96056.88;5053475;28;20209;-26
2024/01/17 03:00:10;;;;;;;5.50;4.57;;;;;;;19.25;41.59;96058.59;5051993;28;20232;-26
2024/01/17 03:02:37;;;;;;;4.97;4.23;;;;;;;19.25;41.49;96056.94;5052274;28;20275;-27
2024/01/17 03:05:05;;;;;;;4.47;4.00;;;;;;;19.26;41.68;96050.13;5054946;28;20219;-26
2024/01/17 03:07:32;;;;;;;4.50;4.00;;;;;;;19.28;41.76;96048.50;5053319;28;20283;-26
2024/01/17 03:09:59;;;;;;;4.37;3.97;;;;;;;19.22;41.42;96038.19;5052513;28;20221;-27
2024/01/17 03:12:25;;;;;;;4.50;4.10;;;;;;;19.30;41.82;96046.84;5058823;28;20200;-38
2024/01/17 03:14:52;;;;;;;4.80;4.10;;;;;;;19.28;41.14;96038.31;5052690;28;20204;-26
2024/01/17 03:17:19;;;;;;;4.23;3.80;;;;;;;19.31;41.43;96043.44;5057163;28;20282;-26
2024/01/17 03:19:46;;;;;;;4.87;4.20;;;;;;;19.32;41.42;96042.59;5061932;28;20247;-29
2024/01/17 03:22:14;;;;;;;4.60;4.20;;;;;;;19.31;41.31;96035.81;5058192;28;20223;-26
2024/01/17 03:24:41;;;;;;;5.03;4.20;;;;;;;19.32;41.11;96037.50;5053590;28;20689;-27
2024/01/17 03:27:08;;;;;;;4.80;4.30;;;;;;;19.33;41.54;96018.88;5053856;28;20238;-32
2024/01/17 03:29:34;;;;;;;4.57;4.03;;;;;;;19.33;41.45;96023.97;5046651;28;20312;-26
2024/01/17 03:32:01;;;;;;;4.60;3.93;;;;;;;19.34;41.33;96029.09;5052586;28;20197;-26
2024/01/17 03:34:27;;;;;;;4.40;4.00;;;;;;;19.35;41.47;96022.28;5047659;28;20233;-26
2024/01/17 03:36:54;;;;;;;4.90;4.40;;;;;;;19.35;41.28;96009.53;5062764;28;20201;-30
2024/01/17 03:39:21;;;;;;;5.07;4.20;;;;;;;19.35;41.21;96007.84;5052006;28;20232;-27
2024/01/17 03:41:47;;;;;;;4.93;4.30;;;;;;;19.36;41.25;95998.53;5051942;28;20217;-26
2024/01/17 03:44:14;;;;;;;4.30;3.90;;;;;;;19.36;41.15;95996.00;5051920;28;20201;-26
2024/01/17 03:46:41;;;;;;;4.93;4.27;;;;;;;19.35;41.20;95984.06;5052152;28;20696;-27
2024/01/17 03:49:08;;;;;;;4.80;3.90;;;;;;;19.36;41.12;95989.19;5052178;28;20252;-27
2024/01/17 03:51:35;;;;;;;4.70;4.20;;;;;;;19.37;41.15;95974.75;5050457;28;20201;-27
2024/01/17 03:54:01;;;;;;;4.83;4.30;;;;;;;19.35;41.08;95972.19;5052063;28;20208;-28
2024/01/17 03:56:28;;;;;;;4.70;4.30;;;;;;;19.37;41.12;95974.75;5048710;28;20293;-26
2024/01/17 03:58:54;;;;;;;4.40;4.00;;;;;;;19.32;41.07;95964.50;5049007;28;20661;-26
2024/01/17 04:01:21;;;;;;;4.80;4.20;;;;;;;19.38;41.12;95977.34;5051004;28;20225;-29
2024/01/17 04:03:49;;;;;;;4.93;4.43;;;;;;;19.39;41.30;95968.00;5051803;28;20690;-26
2024/01/17 04:06:15;;;;;;;4.53;4.13;;;;;;;19.39;41.02;95968.00;5049551;28;20354;-31
2024/01/17 04:08:43;;;;;;;4.00;3.60;;;;;;;19.38;41.12;95962.03;5051942;28;20225;-28
2024/01/17 04:11:10;;;;;;;4.93;4.20;;;;;;;19.39;41.11;95947.63;5051747;28;20250;-27
2024/01/17 04:13:36;;;;;;;4.23;3.77;;;;;;;19.40;40.78;95949.34;5051402;28;20205;-26
2024/01/17 04:16:03;;;;;;;4.67;4.10;;;;;;;19.39;41.00;95950.19;5050687;28;20197;-26
2024/01/17 04:18:31;;;;;;;4.37;3.97;;;;;;;19.39;41.32;95940.00;5051988;28;20228;-30
2024/01/17 04:21:01;;;;;;;4.73;3.77;;;;;;;19.40;41.04;95941.69;5050085;28;20283;-27
2024/01/17 04:23:28;;;;;;;4.40;3.90;;;;;;;19.14;40.87;95890.41;5051407;28;20208;-28
2024/01/17 04:25:54;;;;;;;5.30;4.30;;;;;;;19.40;41.70;95947.66;5066442;28;20205;-27
2024/01/17 04:28:21;;;;;;;4.80;4.00;;;;;;;19.40;41.00;95944.25;5051750;28;20201;-27
2024/01/17 04:30:47;;;;;;;4.33;3.87;;;;;;;19.32;40.98;95915.25;5051089;28;20253;-26
2024/01/17 04:33:14;;;;;;;4.37;3.90;;;;;;;19.42;41.04;95922.19;5050782;28;20288;-26
2024/01/17 04:35:41;;;;;;;3.73;3.43;;;;;;;19.41;41.13;95931.53;5051170;28;20204;-27
2024/01/17 04:38:08;;;;;;;4.13;3.70;;;;;;;19.41;40.98;95926.44;5051909;28;20193;-27
2024/01/17 04:40:34;;;;;;;4.80;3.70;;;;;;;19.42;41.19;95927.28;5051567;28;20729;-26
2024/01/17 04:43:01;;;;;;;4.07;3.57;;;;;;;19.42;40.93;95922.19;5051924;28;20228;-29
2024/01/17 04:45:30;;;;;;;4.57;3.63;;;;;;;19.42;41.00;95920.47;5051918;28;20197;-27
2024/01/17 04:47:56;;;;;;;4.57;4.00;;;;;;;19.43;40.93;95913.72;5051228;28;20283;-26
2024/01/17 04:50:23;;;;;;;4.03;3.63;;;;;;;19.42;40.91;95914.56;5051707;28;20221;-26
2024/01/17 04:52:50;;;;;;;4.47;3.47;;;;;;;19.41;41.11;95905.19;5050962;28;20201;-27
2024/01/17 04:55:17;;;;;;;4.90;3.60;;;;;;;19.43;41.14;95898.41;5051209;28;20197;-29
2024/01/17 04:57:44;;;;;;;3.47;3.17;;;;;;;19.43;40.98;95895.88;5048404;28;20200;-29
2024/01/17 05:00:14;;;;;;;4.37;3.90;;;;;;;19.43;40.85;95890.78;5051445;28;20636;-26
2024/01/17 05:02:41;;;;;;;5.07;3.80;;;;;;;19.42;41.08;95884.81;5057331;28;20707;-26
2024/01/17 05:05:10;;;;;;;4.23;3.70;;;;;;;19.43;40.91;95885.69;5054771;28;20634;-28
2024/01/17 05:07:37;;;;;;;4.67;4.07;;;;;;;19.43;40.87;95889.09;5054572;28;20211;-30
2024/01/17 05:10:04;;;;;;;3.73;3.43;;;;;;;19.43;40.94;95881.47;5042471;28;20278;-26
2024/01/17 05:12:33;;;;;;;5.13;3.70;;;;;;;19.43;40.99;95881.47;5054379;28;20244;-27
2024/01/17 05:14:59;;;;;;;3.77;3.47;;;;;;;19.44;40.80;95879.75;5055155;28;20197;-26
2024/01/17 05:17:26;;;;;;;4.00;3.60;;;;;;;19.22;40.94;95834.47;5055506;28;20739;-26
2024/01/17 05:19:53;;;;;;;4.20;3.73;;;;;;;19.43;41.37;95870.41;5054404;28;20216;-28
2024/01/17 05:22:19;;;;;;;4.10;3.70;;;;;;;19.44;41.05;95869.56;5053127;28;20737;-26
2024/01/17 05:24:46;;;;;;;3.80;3.47;;;;;;;19.44;40.99;95860.22;5054032;28;20229;-26
2024/01/17 05:27:12;;;;;;;3.93;3.57;;;;;;;19.43;40.87;95845.78;5047627;28;20201;-30
2024/01/17 05:29:43;;;;;;;4.00;3.47;;;;;;;19.45;40.80;95827.97;5054086;28;20213;-27
2024/01/17 05:32:10;;;;;;;3.60;3.30;;;;;;;19.43;41.08;95827.09;5054530;28;20199;-28
2024/01/17 05:34:37;;;;;;;4.17;3.73;;;;;;;19.44;40.91;95824.56;5053675;28;20236;-27
2024/01/17 05:37:06;;;;;;;4.07;3.53;;;;;;;19.42;41.01;95822.84;5056440;28;20676;-27
2024/01/17 05:39:33;;;;;;;4.30;3.90;;;;;;;19.45;40.89;95827.97;5053430;28;20274;-26
2024/01/17 05:41:59;;;;;;;4.00;3.53;;;;;;;19.44;40.84;95827.13;5053422;28;20232;-30
2024/01/17 05:44:26;;;;;;;4.00;3.03;;;;;;;19.45;41.04;95826.25;5053877;28;20244;-27
2024/01/17 05:46:52;;;;;;;4.40;3.40;;;;;;;19.45;40.94;95821.16;5054457;28;20588;-27
2024/01/17 05:49:19;;;;;;;3.73;3.23;;;;;;;19.45;40.97;95818.63;5056297;28;20213;-26
2024/01/17 05:51:46;;;;;;;5.00;4.03;;;;;;;19.46;40.75;95812.72;5055824;28;20232;-31
2024/01/17 05:54:12;;;;;;;4.23;3.53;;;;;;;19.47;40.95;95813.53;5053957;28;20239;-27
2024/01/17 05:56:39;;;;;;;4.17;3.67;;;;;;;19.47;41.00;95816.09;5052710;28;20244;-28
2024/01/17 05:59:06;;;;;;;3.80;3.50;;;;;;;19.47;40.80;95816.94;5056132;28;20221;-27
2024/01/17 06:01:34;;;;;;;4.30;3.90;;;;;;;19.47;40.90;95818.63;5052730;28;20229;-31
2024/01/17 06:04:00;;;;;;;4.10;3.60;;;;;;;19.47;40.78;95813.53;5054965;28;20609;-31
2024/01/17 06:06:27;;;;;;;3.90;3.20;;;;;;;19.46;40.71;95815.25;5059985;28;20200;-26
2024/01/17 06:08:53;;;;;;;3.77;3.40;;;;;;;19.46;41.26;95807.63;5053787;28;20235;-26
2024/01/17 06:11:20;;;;;;;4.03;3.10;;;;;;;19.46;41.15;95796.56;5051754;28;20641;-30
2024/01/17 06:13:48;;;;;;;3.93;3.23;;;;;;;19.46;41.04;95791.47;5052879;28;20715;-28
2024/01/17 06:16:14;;;;;;;4.20;2.90;;;;;;;19.46;41.30;95786.38;5053042;28;20375;-26
2024/01/17 06:18:41;;;;;;;4.20;3.00;;;;;;;19.46;40.97;95783.81;5053058;28;20584;-27
2024/01/17 06:21:08;;;;;;;3.63;2.90;;;;;;;19.45;41.10;95779.59;5054638;28;20675;-27
2024/01/17 06:23:35;;;;;;;3.33;2.80;;;;;;;19.44;40.96;95770.22;5054335;28;20308;-26
2024/01/17 06:26:02;;;;;;;4.03;3.40;;;;;;;19.43;41.50;95761.72;5053666;28;20251;-29
2024/01/17 06:28:29;;;;;;;4.37;3.60;;;;;;;19.44;39.78;95770.22;5047625;28;20208;-26
2024/01/17 06:30:55;;;;;;;4.67;4.17;;;;;;;19.42;38.37;95754.06;5047667;28;20197;-27
2024/01/17 06:33:22;;;;;;;6.93;6.07;;;;;;;19.39;35.13;95756.59;5052964;28;20208;-27
2024/01/17 06:35:49;;;;;;;8.13;6.40;;;;;;;19.34;33.15;95756.56;5056299;28;20223;-26
2024/01/17 06:38:16;;;;;;;8.27;6.77;;;;;;;19.29;32.22;95742.03;5052628;28;20211;-27
2024/01/17 06:40:42;;;;;;;8.50;6.93;;;;;;;19.26;31.43;95744.53;5052989;28;20209;-26
2024/01/17 06:43:09;;;;;;;8.87;7.73;;;;;;;19.20;31.33;95740.25;5052210;28;20255;-26
2024/01/17 06:45:36;;;;;;;9.73;7.40;;;;;;;19.15;30.26;95741.88;5051955;28;20262;-26
2024/01/17 06:48:03;;;;;;;9.27;7.60;;;;;;;19.10;31.07;95735.03;5053055;28;20201;-30
2024/01/17 06:50:30;;;;;;;8.77;7.33;;;;;;;19.05;32.13;95727.34;5042358;28;20233;-27
2024/01/17 06:52:56;;;;;;;8.30;6.90;;;;;;;19.03;33.06;95725.59;5043573;28;20215;-29
2024/01/17 06:55:23;;;;;;;8.27;7.10;;;;;;;18.99;33.82;95717.09;5046065;28;20205;-27
2024/01/17 06:57:50;;;;;;;8.43;6.70;;;;;;;18.96;34.87;95723.84;5045724;28;20749;-27
2024/01/17 07:00:17;;;;;;;10.90;7.13;;;;;;;18.94;35.14;95717.88;5048693;28;20228;-28
2024/01/17 07:02:44;;;;;;;7.80;6.63;;;;;;;18.92;35.09;95720.41;5049347;28;20217;-26
2024/01/17 07:05:10;;;;;;;9.23;7.03;;;;;;;18.92;35.76;95710.22;5048769;28;20213;-27
2024/01/17 07:07:38;;;;;;;7.37;6.53;;;;;;;18.91;36.28;95694.94;5047430;28;20213;-30
2024/01/17 07:10:06;;;;;;;7.43;6.20;;;;;;;18.91;36.77;95694.94;5048657;28;20225;-27
2024/01/17 07:12:33;;;;;;;8.53;6.50;;;;;;;18.90;37.21;95683.06;5051148;28;20566;-30
2024/01/17 07:15:00;;;;;;;7.53;6.27;;;;;;;18.93;37.25;95690.72;5049292;28;20221;-31
2024/01/17 07:17:27;;;;;;;6.77;6.03;;;;;;;18.93;37.51;95681.41;5050147;28;20626;-26
2024/01/17 07:19:53;;;;;;;10.07;6.43;;;;;;;18.94;37.75;95689.88;5054904;28;20228;-32
2024/01/17 07:22:20;;;;;;;7.40;5.83;;;;;;;18.89;38.04;95678.81;5048987;28;20658;-27
2024/01/17 07:24:47;;;;;;;7.30;6.07;;;;;;;18.91;37.67;95666.94;5047832;28;20216;-28
2024/01/17 07:27:13;;;;;;;6.87;6.17;;;;;;;18.92;37.89;95678.84;5050419;28;20228;-27
2024/01/17 07:29:40;;;;;;;7.00;6.13;;;;;;;18.92;37.67;95666.13;5049803;28;20220;-28
2024/01/17 07:32:07;;;;;;;7.50;6.17;;;;;;;18.89;37.93;95669.47;5047901;28;20578;-26
2024/01/17 07:34:34;;;;;;;6.53;5.73;;;;;;;18.84;37.99;95660.97;5048212;28;20784;-29
2024/01/17 07:37:01;;;;;;;6.97;5.93;;;;;;;18.89;38.20;95659.28;5048281;28;20203;-31
2024/01/17 07:39:27;;;;;;;6.70;5.33;;;;;;;18.89;38.53;95654.19;5047508;28;20268;-33
2024/01/17 07:41:55;;;;;;;6.67;5.57;;;;;;;18.89;38.66;95653.38;5048587;28;20236;-30
2024/01/17 07:44:27;;;;;;;5.67;5.17;;;;;;;18.90;38.79;95644.88;5045088;28;20799;-33
2024/01/17 07:46:54;;;;;;;5.90;5.13;;;;;;;18.90;38.80;95638.13;5047202;28;20213;-31
2024/01/17 07:49:20;;;;;;;6.67;5.47;;;;;;;18.90;38.88;95624.53;5051076;28;20290;-28
2024/01/17 07:51:47;;;;;;;6.90;5.30;;;;;;;18.91;38.97;95628.75;5047689;28;20212;-28
2024/01/17 07:54:15;;;;;;;5.90;5.30;;;;;;;18.90;38.83;95615.19;5048703;28;20208;-28
2024/01/17 07:56:41;;;;;;;7.87;5.37;;;;;;;18.91;39.08;95613.50;5046974;28;20205;-30
2024/01/17 07:59:08;;;;;;;6.27;5.50;;;;;;;18.90;38.99;95604.16;5046876;28;20339;-26
2024/01/17 08:01:35;;;;;;;6.10;5.50;;;;;;;18.89;37.77;95610.94;5045953;28;20205;-27
2024/01/17 08:04:01;;;;;;;11.20;7.17;;;;;;;18.87;35.22;95594.81;5047918;28;20221;-31
2024/01/17 08:06:28;;;;;;;7.53;6.77;;;;;;;18.86;36.73;95598.19;5048103;28;20315;-27
2024/01/17 08:08:56;;;;;;;9.90;6.60;;;;;;;18.86;37.14;95585.47;5045090;28;20613;-34
2024/01/17 08:11:23;;;;;;;7.27;6.57;;;;;;;18.86;37.58;95585.47;5046714;28;20240;-27
2024/01/17 08:13:49;;;;;;;10.20;6.03;;;;;;;18.87;37.96;95586.31;5048630;28;20743;-32
2024/01/17 08:16:16;;;;;;;7.13;6.03;;;;;;;18.87;38.54;95574.47;5047650;28;20212;-29
2024/01/17 08:18:42;;;;;;;10.40;6.07;;;;;;;18.88;38.66;95576.16;5048778;28;20220;-30
2024/01/17 08:21:09;;;;;;;8.20;5.80;;;;;;;18.89;38.20;95564.28;5048716;28;20200;-33
2024/01/17 08:23:36;;;;;;;7.47;6.20;;;;;;;18.80;38.19;95546.41;5052604;28;20831;-29
2024/01/17 08:26:03;;;;;;;8.43;5.60;;;;;;;18.90;38.29;95564.31;5047965;28;20576;-29
2024/01/17 08:28:29;;;;;;;10.73;5.90;;;;;;;18.89;38.53;95570.22;5049490;28;20295;-27
2024/01/17 08:30:56;;;;;;;6.60;5.63;;;;;;;18.90;38.27;95566.84;5047533;28;20524;-36
2024/01/17 08:33:23;;;;;;;6.53;5.57;;;;;;;18.89;38.85;95557.50;5045584;28;20304;-29
2024/01/17 08:35:50;;;;;;;7.70;5.37;;;;;;;18.90;38.96;95554.13;5046605;28;20229;-26
2024/01/17 08:38:16;;;;;;;8.47;5.30;;;;;;;18.91;39.22;95540.56;5051022;28;20239;-37
2024/01/17 08:40:43;;;;;;;7.10;5.30;;;;;;;18.92;39.15;95541.41;5051409;28;20292;-34
2024/01/17 08:43:09;;;;;;;5.93;4.97;;;;;;;18.92;39.12;95536.31;5053479;28;20303;-35
2024/01/17 08:45:36;;;;;;;6.00;5.10;;;;;;;18.92;39.44;95539.69;5051597;28;20240;-26
2024/01/17 08:48:03;;;;;;;10.10;5.83;;;;;;;18.92;39.48;95537.16;5053267;28;20627;-29
2024/01/17 08:50:31;;;;;;;6.33;5.33;;;;;;;18.93;39.34;95541.44;5051131;28;20225;-27
2024/01/17 08:52:58;;;;;;;6.13;5.20;;;;;;;18.94;39.41;95532.94;5052464;28;20715;-32
2024/01/17 08:55:24;;;;;;;6.60;5.17;;;;;;;18.96;39.58;95527.88;5050177;28;20213;-39
2024/01/17 08:57:51;;;;;;;5.33;4.53;;;;;;;18.96;39.54;95531.28;5050098;28;20290;-28
2024/01/17 09:00:17;;;;;;;7.70;4.70;;;;;;;18.97;39.65;95522.78;5057354;28;20232;-26
2024/01/17 09:02:44;;;;;;;6.80;5.33;;;;;;;18.98;39.73;95529.56;5050547;28;20671;-27
2024/01/17 09:05:11;;;;;;;7.03;5.27;;;;;;;18.98;39.88;95523.66;5050684;28;20307;-27
2024/01/17 09:07:42;;;;;;;4.87;4.20;;;;;;;18.99;39.72;95520.25;5050927;28;20201;-31
2024/01/17 09:10:09;;;;;;;5.87;4.70;;;;;;;18.99;39.96;95520.25;5052016;28;20612;-34
2024/01/17 09:12:36;;;;;;;5.33;4.80;;;;;;;18.99;39.63;95518.56;5052577;28;20237;-28
2024/01/17 09:15:03;;;;;;;5.37;4.33;;;;;;;18.98;39.97;95514.28;5054415;28;20306;-29
2024/01/17 09:17:29;;;;;;;4.77;4.30;;;;;;;18.99;40.41;95513.47;5048922;28;20299;-31
2024/01/17 09:19:56;;;;;;;4.63;4.13;;;;;;;19.00;40.35;95507.53;5057169;28;20298;-26
2024/01/17 09:22:23;;;;;;;5.93;4.43;;;;;;;19.01;40.39;95513.50;5049519;28;20213;-30
2024/01/17 09:24:49;;;;;;;4.53;3.97;;;;;;;19.03;40.37;95514.31;5047864;28;20737;-27
2024/01/17 09:27:16;;;;;;;5.67;4.03;;;;;;;19.03;40.35;95515.19;5050154;28;20201;-27
2024/01/17 09:29:45;;;;;;;4.33;3.73;;;;;;;19.04;40.66;95511.78;5047676;28;20711;-28
2024/01/17 09:32:13;;;;;;;4.87;4.33;;;;;;;19.04;40.03;95511.78;5050350;28;20215;-27
2024/01/17 09:34:44;;;;;;;4.37;3.97;;;;;;;19.05;40.82;95513.53;5050630;28;20197;-33
2024/01/17 09:37:11;;;;;;;5.47;3.90;;;;;;;19.06;40.67;95506.72;5050119;28;20254;-30
2024/01/17 09:39:38;;;;;;;4.67;4.03;;;;;;;19.06;41.12;95499.06;5047576;28;20229;-31
2024/01/17 09:42:05;;;;;;;4.90;4.00;;;;;;;19.06;40.53;95507.56;5049891;28;20216;-34
2024/01/17 09:44:31;;;;;;;4.60;3.67;;;;;;;18.97;40.60;95481.19;5030722;28;20583;-32
2024/01/17 09:47:01;;;;;;;5.37;3.73;;;;;;;19.06;40.91;95499.94;5031804;28;20212;-26
2024/01/17 09:49:28;;;;;;;4.47;3.50;;;;;;;19.06;40.89;95491.44;5050007;28;20320;-33
2024/01/17 09:51:55;;;;;;;5.00;3.60;;;;;;;19.06;41.06;95484.66;5049004;28;20628;-30
2024/01/17 09:54:24;;;;;;;7.17;3.50;;;;;;;19.05;41.16;95467.69;5050206;28;20224;-29
2024/01/17 09:56:51;;;;;;;4.20;3.40;;;;;;;19.06;40.96;95477.03;5049121;28;20312;-31
2024/01/17 09:59:21;;;;;;;3.67;3.37;;;;;;;19.06;41.29;95460.91;5045359;28;20785;-37
2024/01/17 10:01:48;;;;;;;3.80;3.27;;;;;;;19.08;41.73;95451.59;5050009;28;20207;-27
2024/01/17 10:04:15;;;;;;;4.40;2.90;;;;;;;19.08;41.24;95449.91;5049644;28;20290;-30
2024/01/17 10:06:44;;;;;;;5.03;3.10;;;;;;;19.09;41.52;95438.00;5049950;28;20205;-31
2024/01/17 10:09:13;;;;;;;3.80;3.10;;;;;;;19.10;41.53;95444.81;5056776;28;20229;-27
2024/01/17 10:11:40;;;;;;;4.07;3.67;;;;;;;19.11;41.78;95436.31;5051692;28;20299;-28
2024/01/17 10:14:07;;;;;;;6.73;3.60;;;;;;;19.10;41.77;95429.53;5048475;28;20197;-32
2024/01/17 10:16:35;;;;;;;4.03;3.37;;;;;;;19.11;41.51;95427.00;5046529;28;20283;-28
2024/01/17 10:19:04;;;;;;;3.67;3.23;;;;;;;19.12;41.55;95420.19;5050116;28;20262;-28
2024/01/17 10:21:33;;;;;;;3.70;3.10;;;;;;;19.13;41.16;95416.84;5047521;28;20209;-30
2024/01/17 10:24:00;;;;;;;3.77;2.80;;;;;;;19.14;41.21;95408.34;5048056;28;20228;-35
2024/01/17 10:26:27;;;;;;;4.53;3.47;;;;;;;19.13;41.76;95407.47;5049338;28;20216;-26
2024/01/17 10:28:53;;;;;;;5.47;3.70;;;;;;;19.11;41.43;95401.56;5046416;28;20221;-29
2024/01/17 10:31:20;;;;;;;5.77;3.60;;;;;;;19.13;41.64;95401.56;5047558;28;20638;-27
2024/01/17 10:33:48;;;;;;;7.00;3.23;;;;;;;19.13;41.56;95383.75;5045108;28;20208;-27
2024/01/17 10:36:15;;;;;;;6.27;3.60;;;;;;;19.12;41.58;95379.47;5044454;28;20655;-27
2024/01/17 10:38:41;;;;;;;5.30;4.20;;;;;;;19.12;41.63;95376.94;5046833;28;20282;-27
2024/01/17 10:41:08;;;;;;;5.50;3.53;;;;;;;19.12;41.72;95369.28;5047176;28;20209;-29
2024/01/17 10:43:53;;;;;;;5.67;3.93;;;;;;;19.11;41.80;95359.97;5049166;28;20221;-28
2024/01/17 10:46:20;;;;;;;5.57;3.50;;;;;;;19.11;41.89;95355.72;5046808;28;20710;-26
2024/01/17 10:48:47;;;;;;;4.80;3.37;;;;;;;19.10;41.76;95351.47;5048767;28;20228;-39
2024/01/17 10:51:18;;;;;;;5.03;3.70;;;;;;;19.06;41.68;95339.56;5050930;28;20627;-30
2024/01/17 10:53:50;;;;;;;4.47;3.73;;;;;;;19.07;41.76;95340.44;5048207;28;20205;-28
2024/01/17 10:56:22;;;;;;;5.77;3.40;;;;;;;19.09;41.84;95331.94;5047385;28;20287;-30
2024/01/17 10:58:50;;;;;;;4.57;3.50;;;;;;;19.09;41.79;95329.41;5048337;28;20599;-32
2024/01/17 11:01:37;;;;;;;4.93;3.67;;;;;;;19.10;41.82;95313.28;5046404;28;20291;-29
2024/01/17 11:04:10;;;;;;;5.60;3.77;;;;;;;19.11;41.68;95303.97;5046231;28;20216;-35
2024/01/17 11:06:37;;;;;;;5.57;3.67;;;;;;;19.11;41.85;95292.09;5041790;28;20215;-27
2024/01/17 11:09:06;;;;;;;4.27;3.40;;;;;;;19.12;41.76;95280.19;5046915;28;20279;-28
2024/01/17 11:11:33;;;;;;;3.80;3.40;;;;;;;19.12;41.66;95260.69;5046942;28;20209;-33
2024/01/17 11:14:00;;;;;;;6.50;3.87;;;;;;;19.12;41.51;95236.91;5048262;28;20207;-31
2024/01/17 11:16:26;;;;;;;5.57;3.70;;;;;;;19.12;41.50;95216.53;5047447;28;20306;-27
2024/01/17 11:18:53;;;;;;;6.40;3.70;;;;;;;19.12;41.84;95204.69;5045959;28;20252;-27
2024/01/17 11:21:20;;;;;;;4.87;3.43;;;;;;;19.11;41.85;95205.53;5047387;28;20196;-27
2024/01/17 11:23:58;;;;;;;6.07;3.73;;;;;;;19.11;41.79;95192.81;5030362;28;20726;-34
2024/01/17 11:26:46;;;;;;;6.30;3.63;;;;;;;19.11;42.00;95197.91;5060855;28;20284;-34
2024/01/17 11:29:22;;;;;;;6.37;3.70;;;;;;;19.12;42.07;95186.84;5047157;28;20303;-28
2024/01/17 11:31:54;;;;;;;5.87;3.67;;;;;;;19.12;41.95;95184.31;5029954;28;20196;-32
2024/01/17 11:34:21;;;;;;;6.03;4.10;;;;;;;19.12;42.08;95180.91;5047749;28;20197;-33